createdAt,value
2022-10-07T00:02:08.964Z,8.60
2022-10-07T00:04:36.996Z,8.62
2022-10-07T00:07:03.899Z,8.56
2022-10-07T00:09:30.694Z,8.68
2022-10-07T00:11:57.087Z,8.72
2022-10-07T00:14:23.508Z,8.54
2022-10-07T00:16:50.102Z,8.43
2022-10-07T00:19:16.573Z,8.33
2022-10-07T00:21:43.001Z,8.37
2022-10-07T00:24:11.096Z,8.32
2022-10-07T00:26:37.598Z,8.26
2022-10-07T00:29:06.236Z,8.39
2022-10-07T00:31:35.847Z,8.39
2022-10-07T00:34:03.945Z,8.32
2022-10-07T00:36:37.237Z,8.31
2022-10-07T00:39:09.057Z,8.19
2022-10-07T00:41:38.847Z,8.25
2022-10-07T00:44:33.962Z,8.19
2022-10-07T00:47:12.606Z,8.26
2022-10-07T00:49:44.820Z,8.39
2022-10-07T00:52:12.897Z,8.25
2022-10-07T00:54:40.216Z,8.32
2022-10-07T00:57:07.171Z,8.19
2022-10-07T00:59:33.699Z,8.24
2022-10-07T01:02:00.242Z,8.21
2022-10-07T01:04:26.679Z,8.07
2022-10-07T01:06:53.255Z,8.27
2022-10-07T01:09:21.464Z,8.16
2022-10-07T01:11:59.712Z,8.18
2022-10-07T01:14:44.498Z,8.12
2022-10-07T01:17:20.356Z,8.10
2022-10-07T01:19:55.921Z,8.17
2022-10-07T01:22:44.883Z,8.26
2022-10-07T01:25:27.250Z,8.18
2022-10-07T01:28:05.256Z,8.14
2022-10-07T01:30:36.554Z,8.24
2022-10-07T01:33:07.904Z,8.24
2022-10-07T01:35:37.160Z,8.31
2022-10-07T01:38:08.580Z,8.13
2022-10-07T01:40:46.293Z,8.06
2022-10-07T01:43:16.768Z,8.07
2022-10-07T01:45:43.655Z,8.22
2022-10-07T01:48:10.526Z,8.26
2022-10-07T01:50:39.069Z,8.31
2022-10-07T01:53:49.830Z,8.13
2022-10-07T01:56:35.945Z,8.26
2022-10-07T01:59:44.047Z,8.21
2022-10-07T02:02:28.309Z,8.23
2022-10-07T02:05:15.597Z,8.26
2022-10-07T02:07:56.518Z,8.41
2022-10-07T02:10:36.295Z,8.34
2022-10-07T02:13:23.559Z,8.25
2022-10-07T02:16:10.639Z,8.24
2022-10-07T02:18:41.474Z,8.34
2022-10-07T02:21:10.625Z,8.39
2022-10-07T02:23:40.201Z,8.38
2022-10-07T02:26:10.794Z,8.34
2022-10-07T02:28:41.836Z,8.36
2022-10-07T02:31:10.614Z,8.40
2022-10-07T02:33:38.683Z,8.44
2022-10-07T02:36:11.925Z,8.54
2022-10-07T02:38:39.678Z,8.50
2022-10-07T02:41:31.311Z,8.56
2022-10-07T02:44:16.905Z,8.49
2022-10-07T02:46:51.859Z,8.51
2022-10-07T02:49:23.305Z,8.56
2022-10-07T02:52:05.445Z,8.48
2022-10-07T02:54:42.663Z,8.49
2022-10-07T02:57:12.735Z,8.45
2022-10-07T02:59:40.434Z,8.37
2022-10-07T03:02:11.085Z,8.35
2022-10-07T03:04:37.568Z,8.41
2022-10-07T03:07:04.532Z,8.31
2022-10-07T03:09:31.683Z,8.31
2022-10-07T03:11:58.104Z,8.31
2022-10-07T03:14:28.007Z,8.24
2022-10-07T03:16:54.426Z,8.20
2022-10-07T03:19:20.818Z,8.26
2022-10-07T03:21:47.399Z,8.20
2022-10-07T03:24:13.795Z,8.12
2022-10-07T03:26:40.301Z,8.03
2022-10-07T03:29:08.274Z,8.04
2022-10-07T03:31:35.186Z,8.09
2022-10-07T03:34:02.043Z,8.09
2022-10-07T03:36:28.640Z,8.15
2022-10-07T03:38:55.595Z,8.03
2022-10-07T03:41:22.396Z,7.99
2022-10-07T03:43:48.807Z,8.03
2022-10-07T03:46:16.291Z,8.04
2022-10-07T03:48:42.727Z,8.00
2022-10-07T03:51:09.244Z,7.96
2022-10-07T03:53:38.706Z,8.07
2022-10-07T03:56:05.338Z,8.07
2022-10-07T03:58:31.814Z,8.07
2022-10-07T04:01:12.253Z,8.10
2022-10-07T04:03:38.671Z,8.00
2022-10-07T04:06:05.309Z,7.90
2022-10-07T04:08:33.307Z,7.96
2022-10-07T04:11:00.879Z,7.96
2022-10-07T04:13:27.795Z,7.93
2022-10-07T04:15:54.892Z,8.13
2022-10-07T04:18:22.150Z,8.04
2022-10-07T04:20:48.620Z,8.08
2022-10-07T04:23:16.532Z,8.01
2022-10-07T04:25:47.199Z,7.93
2022-10-07T04:28:26.111Z,7.94
2022-10-07T04:30:53.832Z,7.97
2022-10-07T04:33:24.403Z,7.89
2022-10-07T04:35:51.408Z,7.86
2022-10-07T04:38:18.849Z,7.87
2022-10-07T04:40:48.030Z,7.79
2022-10-07T04:43:20.044Z,7.71
2022-10-07T04:45:48.409Z,7.70
2022-10-07T04:48:17.531Z,7.65
2022-10-07T04:50:44.105Z,7.68
2022-10-07T04:53:14.177Z,7.70
2022-10-07T04:55:42.597Z,7.78
2022-10-07T04:58:09.246Z,7.74
2022-10-07T05:00:36.352Z,7.63
2022-10-07T05:03:03.461Z,7.73
2022-10-07T05:05:29.922Z,7.67
2022-10-07T05:07:56.342Z,7.73
2022-10-07T05:10:22.863Z,7.72
2022-10-07T05:12:55.217Z,7.74
2022-10-07T05:15:23.253Z,7.63
2022-10-07T05:17:50.184Z,7.62
2022-10-07T05:20:16.832Z,7.58
2022-10-07T05:22:43.333Z,7.57
2022-10-07T05:25:09.729Z,7.71
2022-10-07T05:27:36.392Z,7.63
2022-10-07T05:30:03.441Z,7.71
2022-10-07T05:32:30.082Z,7.59
2022-10-07T05:34:56.523Z,7.65
2022-10-07T05:37:23.103Z,7.64
2022-10-07T05:39:49.535Z,7.68
2022-10-07T05:42:16.565Z,7.81
2022-10-07T05:44:42.994Z,7.85
2022-10-07T05:47:09.490Z,7.83
2022-10-07T05:49:36.089Z,7.78
2022-10-07T05:52:03.449Z,7.76
2022-10-07T05:54:29.979Z,7.75
2022-10-07T05:56:56.481Z,7.76
2022-10-07T05:59:23.154Z,7.93
2022-10-07T06:01:49.673Z,7.84
2022-10-07T06:04:16.129Z,7.98
2022-10-07T06:06:42.663Z,8.00
2022-10-07T06:09:27.720Z,8.11
2022-10-07T06:12:12.618Z,8.09
2022-10-07T06:14:39.216Z,8.13
2022-10-07T06:17:05.623Z,8.22
2022-10-07T06:19:32.123Z,8.15
2022-10-07T06:21:58.848Z,8.43
2022-10-07T06:24:25.693Z,8.41
2022-10-07T06:26:55.277Z,8.36
2022-10-07T06:29:22.220Z,8.46
2022-10-07T06:31:48.616Z,8.62
2022-10-07T06:34:15.124Z,8.52
2022-10-07T06:36:42.393Z,8.51
2022-10-07T06:39:08.980Z,8.64
2022-10-07T06:41:35.590Z,8.63
2022-10-07T06:44:02.152Z,8.62
2022-10-07T06:46:28.734Z,8.64
2022-10-07T06:48:55.266Z,8.71
2022-10-07T06:51:22.499Z,8.68
2022-10-07T06:53:55.006Z,8.90
2022-10-07T06:56:21.459Z,8.84
2022-10-07T06:58:49.729Z,8.88
2022-10-07T07:01:16.751Z,8.96
2022-10-07T07:03:43.315Z,9.03
2022-10-07T07:06:11.049Z,9.16
2022-10-07T07:08:38.652Z,9.14
2022-10-07T07:11:33.052Z,9.30
2022-10-07T07:14:00.126Z,9.25
2022-10-07T07:16:26.792Z,9.27
2022-10-07T07:18:55.229Z,9.36
2022-10-07T07:21:22.061Z,9.47
2022-10-07T07:23:48.812Z,9.56
2022-10-07T07:26:15.300Z,9.51
2022-10-07T07:28:41.775Z,9.56
2022-10-07T07:31:10.411Z,9.63
2022-10-07T07:33:39.733Z,9.68
2022-10-07T07:36:17.664Z,9.75
2022-10-07T07:38:51.499Z,9.93
2022-10-07T07:41:20.630Z,9.98
2022-10-07T07:43:51.207Z,10.12
2022-10-07T07:46:19.470Z,10.17
2022-10-07T07:48:46.803Z,10.28
2022-10-07T07:51:14.226Z,10.44
2022-10-07T07:53:40.638Z,10.43
2022-10-07T07:56:07.154Z,10.44
2022-10-07T07:58:33.586Z,10.50
2022-10-07T08:01:07.058Z,10.65
2022-10-07T08:03:37.266Z,10.60
2022-10-07T08:06:06.115Z,10.69
2022-10-07T08:08:33.363Z,10.78
2022-10-07T08:11:17.338Z,10.92
2022-10-07T08:13:44.466Z,10.98
2022-10-07T08:16:14.259Z,11.04
2022-10-07T08:18:42.189Z,11.17
2022-10-07T08:21:10.585Z,11.22
2022-10-07T08:23:37.420Z,11.48
2022-10-07T08:26:04.618Z,11.38
2022-10-07T08:28:32.388Z,11.54
2022-10-07T08:31:12.721Z,11.62
2022-10-07T08:33:41.560Z,11.56
2022-10-07T08:36:11.159Z,11.66
2022-10-07T08:38:39.414Z,11.74
2022-10-07T08:41:08.788Z,11.77
2022-10-07T08:43:40.523Z,11.72
2022-10-07T08:46:12.963Z,11.80
2022-10-07T08:48:41.067Z,11.95
2022-10-07T08:51:20.580Z,11.93
2022-10-07T08:53:54.724Z,12.07
2022-10-07T08:56:24.478Z,12.20
2022-10-07T08:59:21.736Z,12.25
2022-10-07T09:02:19.284Z,12.26
2022-10-07T09:04:58.880Z,12.41
2022-10-07T09:07:35.710Z,12.41
2022-10-07T09:10:15.986Z,12.52
2022-10-07T09:12:58.242Z,12.48
2022-10-07T09:15:45.353Z,12.50
2022-10-07T09:18:31.872Z,12.70
2022-10-07T09:20:58.417Z,12.60
2022-10-07T09:23:33.467Z,12.66
2022-10-07T09:26:00.584Z,12.65
2022-10-07T09:28:32.555Z,12.75
2022-10-07T09:31:00.661Z,12.87
2022-10-07T09:33:29.916Z,12.90
2022-10-07T09:36:04.163Z,12.93
2022-10-07T09:38:38.358Z,13.05
2022-10-07T09:41:16.784Z,12.95
2022-10-07T09:43:53.879Z,12.99
2022-10-07T09:46:41.994Z,13.15
2022-10-07T09:49:26.208Z,13.31
2022-10-07T09:52:31.978Z,13.35
2022-10-07T09:55:37.715Z,13.41
2022-10-07T09:58:19.951Z,13.52
2022-10-07T10:00:49.050Z,13.63
2022-10-07T10:03:16.165Z,13.84
2022-10-07T10:05:57.641Z,13.97
2022-10-07T10:08:27.095Z,14.00
2022-10-07T10:10:58.737Z,14.12
2022-10-07T10:13:40.790Z,14.18
2022-10-07T10:16:27.770Z,14.15
2022-10-07T10:19:04.722Z,14.12
2022-10-07T10:21:41.619Z,14.30
2022-10-07T10:24:14.580Z,14.40
2022-10-07T10:27:16.484Z,14.55
2022-10-07T10:30:10.925Z,14.53
2022-10-07T10:33:08.312Z,14.79
2022-10-07T10:36:09.533Z,15.82
2022-10-07T10:38:45.595Z,16.63
2022-10-07T10:41:31.707Z,16.87
2022-10-07T10:44:24.112Z,17.70
2022-10-07T10:47:12.252Z,17.91
2022-10-07T10:50:04.228Z,18.04
2022-10-07T10:52:57.729Z,18.59
2022-10-07T10:55:47.358Z,18.25
2022-10-07T10:58:25.558Z,18.34
2022-10-07T11:01:14.907Z,18.96
2022-10-07T11:04:00.691Z,18.27
2022-10-07T11:06:31.010Z,18.38
2022-10-07T11:08:59.252Z,17.96
2022-10-07T11:11:28.034Z,18.24
2022-10-07T11:14:14.262Z,18.86
2022-10-07T11:16:48.439Z,19.13
2022-10-07T11:19:24.135Z,19.22
2022-10-07T11:21:53.185Z,18.22
2022-10-07T11:24:39.359Z,19.51
2022-10-07T11:27:26.632Z,19.06
2022-10-07T11:30:15.214Z,19.55
2022-10-07T11:32:49.518Z,20.03
2022-10-07T11:35:46.154Z,20.00
2022-10-07T11:38:15.472Z,20.36
2022-10-07T11:40:52.044Z,20.31
2022-10-07T11:43:30.292Z,20.72
2022-10-07T11:46:05.817Z,20.69
2022-10-07T11:48:42.498Z,20.43
2022-10-07T11:51:18.130Z,20.10
2022-10-07T11:53:45.055Z,20.06
2022-10-07T11:56:16.920Z,19.50
2022-10-07T11:58:44.614Z,19.52
2022-10-07T12:01:26.253Z,18.76
2022-10-07T12:03:54.680Z,18.78
2022-10-07T12:06:21.116Z,19.22
2022-10-07T12:08:47.674Z,19.21
2022-10-07T12:11:17.524Z,20.11
2022-10-07T12:13:45.990Z,20.12
2022-10-07T12:16:24.549Z,19.81
2022-10-07T12:19:11.131Z,20.63
2022-10-07T12:21:58.117Z,20.23
2022-10-07T12:24:25.166Z,20.69
2022-10-07T12:26:52.423Z,21.50
2022-10-07T12:29:22.635Z,21.79
2022-10-07T12:31:50.067Z,21.13
2022-10-07T12:34:36.063Z,21.35
2022-10-07T12:37:39.234Z,20.52
2022-10-07T12:40:17.461Z,19.86
2022-10-07T12:42:52.183Z,18.33
2022-10-07T12:45:21.373Z,18.29
2022-10-07T12:47:50.716Z,18.00
2022-10-07T12:50:20.168Z,17.40
2022-10-07T12:52:53.019Z,16.68
2022-10-07T12:55:29.510Z,16.98
2022-10-07T12:58:20.754Z,16.82
2022-10-07T13:01:20.844Z,16.86
2022-10-07T13:04:20.170Z,17.39
2022-10-07T13:07:38.731Z,18.44
2022-10-07T13:10:17.344Z,18.82
2022-10-07T13:12:52.907Z,19.60
2022-10-07T13:15:31.786Z,20.77
2022-10-07T13:18:08.552Z,21.28
2022-10-07T13:20:54.296Z,20.28
2022-10-07T13:23:26.214Z,20.94
2022-10-07T13:25:56.114Z,19.87
2022-10-07T13:28:26.575Z,19.05
2022-10-07T13:30:53.458Z,18.14
2022-10-07T13:33:28.235Z,18.85
2022-10-07T13:36:16.902Z,18.40
2022-10-07T13:38:46.295Z,17.97
2022-10-07T13:41:30.864Z,19.33
2022-10-07T13:44:03.797Z,19.18
2022-10-07T13:46:33.050Z,18.92
2022-10-07T13:49:00.988Z,19.37
2022-10-07T13:51:41.289Z,19.21
2022-10-07T13:54:18.918Z,18.25
2022-10-07T13:56:45.801Z,18.03
2022-10-07T13:59:18.013Z,18.10
2022-10-07T14:01:47.401Z,17.56
2022-10-07T14:04:21.309Z,17.65
2022-10-07T14:07:01.256Z,18.19
2022-10-07T14:09:38.627Z,17.67
2022-10-07T14:12:08.208Z,17.31
2022-10-07T14:14:41.213Z,16.80
2022-10-07T14:17:26.358Z,16.43
2022-10-07T14:19:55.511Z,16.39
2022-10-07T14:22:31.986Z,16.17
2022-10-07T14:25:01.607Z,16.10
2022-10-07T14:27:52.558Z,16.36
2022-10-07T14:30:56.289Z,16.18
2022-10-07T14:33:59.086Z,16.53
2022-10-07T14:36:26.390Z,16.07
2022-10-07T14:38:53.359Z,16.13
2022-10-07T14:41:22.334Z,16.12
2022-10-07T14:43:50.245Z,16.07
2022-10-07T14:46:22.132Z,16.01
2022-10-07T14:48:49.768Z,16.02
2022-10-07T14:51:18.758Z,16.28
2022-10-07T14:53:49.831Z,16.35
2022-10-07T14:56:24.100Z,16.21
2022-10-07T14:58:50.521Z,16.08
2022-10-07T15:01:16.918Z,15.82
2022-10-07T15:03:43.410Z,15.84
2022-10-07T15:06:09.852Z,16.07
2022-10-07T15:08:36.276Z,16.14
2022-10-07T15:11:05.427Z,15.91
2022-10-07T15:13:31.999Z,15.72
2022-10-07T15:15:58.801Z,16.03
2022-10-07T15:18:25.207Z,15.95
2022-10-07T15:20:58.307Z,15.82
2022-10-07T15:23:24.740Z,15.69
2022-10-07T15:25:52.212Z,15.79
2022-10-07T15:28:18.870Z,15.97
2022-10-07T15:30:45.340Z,15.92
2022-10-07T15:33:13.122Z,15.78
2022-10-07T15:35:39.557Z,15.71
2022-10-07T15:38:05.975Z,15.67
2022-10-07T15:40:32.446Z,15.55
2022-10-07T15:42:59.106Z,15.69
2022-10-07T15:45:26.788Z,15.71
2022-10-07T15:47:58.117Z,15.69
2022-10-07T15:50:27.430Z,15.92
2022-10-07T15:52:54.740Z,16.11
2022-10-07T15:55:21.139Z,16.07
2022-10-07T15:57:47.717Z,16.09
2022-10-07T16:00:15.187Z,16.04
2022-10-07T16:02:42.053Z,15.97
2022-10-07T16:05:09.660Z,15.72
2022-10-07T16:07:36.500Z,15.54
2022-10-07T16:10:03.101Z,15.16
2022-10-07T16:12:29.552Z,14.91
2022-10-07T16:14:56.226Z,14.93
2022-10-07T16:17:22.618Z,14.73
2022-10-07T16:19:49.052Z,14.70
2022-10-07T16:22:16.551Z,14.43
2022-10-07T16:24:42.983Z,14.45
2022-10-07T16:27:09.377Z,14.46
2022-10-07T16:29:54.309Z,14.30
2022-10-07T16:32:20.787Z,14.31
2022-10-07T16:34:48.200Z,14.23
2022-10-07T16:37:15.282Z,14.17
2022-10-07T16:39:41.816Z,14.11
2022-10-07T16:42:08.560Z,14.03
2022-10-07T16:44:35.308Z,14.16
2022-10-07T16:47:01.806Z,14.03
2022-10-07T16:49:30.132Z,14.00
2022-10-07T16:51:56.859Z,13.93
2022-10-07T16:54:24.021Z,13.97
2022-10-07T16:56:52.376Z,14.00
2022-10-07T16:59:22.626Z,14.08
2022-10-07T17:01:55.466Z,13.90
2022-10-07T17:04:23.583Z,13.99
2022-10-07T17:06:50.510Z,14.02
2022-10-07T17:09:18.243Z,14.04
2022-10-07T17:11:45.667Z,14.04
2022-10-07T17:14:17.978Z,14.08
2022-10-07T17:16:49.053Z,14.10
2022-10-07T17:19:19.679Z,14.04
2022-10-07T17:21:47.995Z,14.11
2022-10-07T17:24:15.564Z,14.16
2022-10-07T17:26:42.531Z,14.15
2022-10-07T17:29:11.970Z,14.11
2022-10-07T17:31:40.784Z,14.14
2022-10-07T17:34:07.383Z,14.12
2022-10-07T17:36:34.777Z,14.25
2022-10-07T17:39:01.784Z,14.18
2022-10-07T17:41:30.361Z,14.19
2022-10-07T17:43:59.557Z,14.18
2022-10-07T17:46:28.652Z,14.22
2022-10-07T17:49:06.334Z,14.07
2022-10-07T17:51:34.475Z,13.96
2022-10-07T17:54:02.557Z,14.01
2022-10-07T17:56:31.811Z,14.04
2022-10-07T17:58:59.058Z,14.06
2022-10-07T18:01:28.331Z,14.06
2022-10-07T18:04:00.070Z,13.94
2022-10-07T18:06:30.305Z,13.94
2022-10-07T18:08:59.171Z,13.96
2022-10-07T18:11:46.724Z,14.02
2022-10-07T18:14:32.387Z,13.90
2022-10-07T18:16:59.385Z,13.93
2022-10-07T18:19:26.785Z,13.96
2022-10-07T18:21:56.165Z,14.09
2022-10-07T18:24:28.647Z,13.93
2022-10-07T18:26:58.884Z,13.81
2022-10-07T18:29:38.520Z,13.83
2022-10-07T18:32:06.502Z,13.76
2022-10-07T18:34:32.928Z,13.81
2022-10-07T18:37:00.308Z,13.74
2022-10-07T18:39:29.291Z,13.85
2022-10-07T18:41:56.257Z,13.84
2022-10-07T18:44:22.681Z,13.86
2022-10-07T18:46:49.131Z,13.76
2022-10-07T18:50:38.176Z,13.79
2022-10-07T18:53:04.575Z,13.86
2022-10-07T18:55:30.991Z,13.81
2022-10-07T18:57:57.442Z,13.54
2022-10-07T19:00:26.430Z,13.53
2022-10-07T19:02:52.850Z,13.50
2022-10-07T19:05:19.348Z,13.43
2022-10-07T19:07:45.958Z,13.36
2022-10-07T19:10:12.549Z,13.36
2022-10-07T19:12:57.614Z,13.32
2022-10-07T19:15:24.275Z,13.45
2022-10-07T19:17:50.678Z,13.34
2022-10-07T19:20:18.150Z,13.32
2022-10-07T19:22:46.219Z,13.39
2022-10-07T19:25:33.091Z,13.61
2022-10-07T19:27:59.664Z,13.57
2022-10-07T19:30:26.100Z,13.63
2022-10-07T19:32:52.522Z,13.55
2022-10-07T19:35:19.144Z,13.55
2022-10-07T19:37:46.223Z,13.55
2022-10-07T19:40:12.948Z,13.45
2022-10-07T19:42:48.587Z,13.46
2022-10-07T19:45:18.768Z,13.50
2022-10-07T19:47:45.698Z,13.48
2022-10-07T19:50:13.048Z,13.50
2022-10-07T19:52:39.486Z,13.51
2022-10-07T19:55:06.398Z,13.44
2022-10-07T19:57:32.809Z,13.39
2022-10-07T19:59:59.229Z,13.44
2022-10-07T20:02:25.774Z,13.30
2022-10-07T20:04:52.256Z,13.29
2022-10-07T20:07:18.700Z,13.36
2022-10-07T20:09:45.116Z,13.41
2022-10-07T20:12:13.789Z,13.41
2022-10-07T20:14:40.299Z,13.34
2022-10-07T20:17:06.929Z,13.37
2022-10-07T20:19:33.870Z,13.36
2022-10-07T20:22:01.245Z,13.39
2022-10-07T20:24:27.723Z,13.35
2022-10-07T20:26:54.319Z,13.37
2022-10-07T20:29:25.301Z,13.34
2022-10-07T20:31:52.349Z,13.45
2022-10-07T20:34:19.971Z,13.39
2022-10-07T20:36:46.460Z,13.31
2022-10-07T20:39:37.186Z,13.39
2022-10-07T20:42:25.885Z,13.25
2022-10-07T20:44:53.047Z,13.36
2022-10-07T20:47:20.885Z,13.43
2022-10-07T20:49:50.662Z,13.36
2022-10-07T20:52:20.976Z,13.44
2022-10-07T20:54:48.129Z,13.38
2022-10-07T20:57:16.934Z,13.22
2022-10-07T20:59:44.003Z,13.18
2022-10-07T21:02:11.760Z,13.15
2022-10-07T21:04:38.314Z,13.21
2022-10-07T21:07:04.920Z,13.19
2022-10-07T21:09:36.034Z,13.24
2022-10-07T21:12:04.993Z,13.22
2022-10-07T21:14:31.390Z,13.24
2022-10-07T21:17:01.289Z,13.27
2022-10-07T21:19:30.247Z,13.21
2022-10-07T21:21:56.631Z,13.21
2022-10-07T21:24:23.380Z,13.31
2022-10-07T21:26:49.928Z,13.25
2022-10-07T21:29:17.027Z,13.29
2022-10-07T21:31:44.459Z,13.37
2022-10-07T21:34:10.910Z,13.40
2022-10-07T21:36:40.790Z,13.38
2022-10-07T21:39:07.467Z,13.29
2022-10-07T21:41:35.607Z,13.18
2022-10-07T21:44:04.075Z,13.06
2022-10-07T21:46:31.914Z,13.11
2022-10-07T21:48:58.760Z,13.00
2022-10-07T21:51:29.617Z,12.93
2022-10-07T21:53:58.134Z,13.02
2022-10-07T21:56:26.423Z,12.91
2022-10-07T21:58:53.322Z,12.85
2022-10-07T22:01:22.419Z,12.82
2022-10-07T22:04:00.001Z,12.78
2022-10-07T22:06:46.528Z,12.76
2022-10-07T22:09:14.427Z,12.73
2022-10-07T22:11:41.283Z,12.71
2022-10-07T22:14:12.355Z,12.77
2022-10-07T22:16:39.770Z,12.72
2022-10-07T22:19:06.382Z,12.65
2022-10-07T22:21:35.619Z,12.67
2022-10-07T22:24:05.083Z,12.67
2022-10-07T22:26:37.963Z,12.57
2022-10-07T22:29:09.478Z,12.53
2022-10-07T22:31:36.544Z,12.42
2022-10-07T22:34:03.214Z,12.39
2022-10-07T22:36:29.744Z,12.44
2022-10-07T22:38:58.999Z,12.46
2022-10-07T22:41:26.376Z,12.51
2022-10-07T22:43:52.878Z,12.39
2022-10-07T22:46:26.556Z,12.31
2022-10-07T22:48:57.965Z,12.34
2022-10-07T22:51:28.143Z,12.32
2022-10-07T22:53:55.868Z,12.30
2022-10-07T22:56:24.076Z,12.27
2022-10-07T22:58:59.666Z,12.22
2022-10-07T23:01:31.309Z,12.27
2022-10-07T23:04:00.717Z,12.14
2022-10-07T23:06:27.621Z,12.09
2022-10-07T23:08:54.030Z,12.10
2022-10-07T23:11:23.298Z,12.06
2022-10-07T23:13:54.920Z,12.02
2022-10-07T23:16:29.277Z,12.09
2022-10-07T23:18:56.019Z,12.16
2022-10-07T23:21:24.938Z,12.08
2022-10-07T23:24:01.671Z,12.08
2022-10-07T23:26:33.401Z,12.15
2022-10-07T23:29:01.297Z,12.04
2022-10-07T23:31:30.415Z,12.04
2022-10-07T23:33:58.312Z,12.06
2022-10-07T23:36:25.851Z,11.95
2022-10-07T23:38:52.823Z,11.96
2022-10-07T23:41:21.899Z,11.92
2022-10-07T23:43:53.074Z,11.87
2022-10-07T23:46:20.823Z,11.88
2022-10-07T23:48:47.386Z,11.80
2022-10-07T23:51:17.286Z,11.85
2022-10-07T23:53:44.089Z,11.78
2022-10-07T23:56:10.623Z,11.70
2022-10-07T23:58:37.259Z,11.63
